createdAt,value
2016-06-27T00:00:30.991Z,70.9
2016-06-27T00:01:30.978Z,70.72
2016-06-27T00:02:31.444Z,70.43
2016-06-27T00:03:31.626Z,70.43
2016-06-27T00:04:31.454Z,71.19
2016-06-27T00:05:31.661Z,71.19
2016-06-27T00:06:31.668Z,71.29
2016-06-27T00:07:31.466Z,71.19
2016-06-27T00:08:32.093Z,71.1
2016-06-27T00:09:31.489Z,70.72
2016-06-27T00:10:31.508Z,71.1
2016-06-27T00:11:31.726Z,71.1
2016-06-27T00:12:30.907Z,70.62
2016-06-27T00:13:31.122Z,71
2016-06-27T00:14:30.910Z,71.1
2016-06-27T00:15:30.911Z,70.62
2016-06-27T00:16:45.966Z,71.1
2016-06-27T00:17:45.971Z,71
2016-06-27T00:18:31.575Z,70.72
2016-06-27T00:19:31.583Z,70.33
2016-06-27T00:20:32.002Z,70.49
2016-06-27T00:21:31.591Z,70.62
2016-06-27T00:22:31.599Z,70.58
2016-06-27T00:23:31.614Z,70.78
2016-06-27T00:24:31.001Z,70.72
2016-06-27T00:25:31.617Z,70.81
2016-06-27T00:26:31.419Z,70.58
2016-06-27T00:27:31.863Z,70.9
2016-06-27T00:28:31.443Z,71
2016-06-27T00:29:31.028Z,70.62
2016-06-27T00:30:46.087Z,71.16
2016-06-27T00:31:31.702Z,71
2016-06-27T00:32:31.918Z,70.97
2016-06-27T00:33:31.949Z,71.45
2016-06-27T00:34:31.715Z,71.06
2016-06-27T00:35:31.930Z,71.29
2016-06-27T00:36:32.354Z,71.06
2016-06-27T00:37:31.955Z,71.64
2016-06-27T00:38:32.370Z,70.87
2016-06-27T00:39:31.764Z,71.16
2016-06-27T00:40:31.787Z,70.97
2016-06-27T00:42:31.821Z,71.06
2016-06-27T00:43:31.184Z,71.06
2016-06-27T00:44:31.384Z,70.49
2016-06-27T00:45:31.199Z,70.58
2016-06-27T00:46:31.411Z,70.78
2016-06-27T00:47:31.207Z,70.49
2016-06-27T00:48:31.243Z,70.29
2016-06-27T00:49:31.221Z,70.87
2016-06-27T00:50:46.094Z,70.97
2016-06-27T00:53:31.901Z,70.78
2016-06-27T00:54:31.485Z,70.97
2016-06-27T00:55:31.928Z,70.97
2016-06-27T00:56:31.302Z,71.73
2016-06-27T00:57:31.298Z,71.06
2016-06-27T00:58:31.322Z,71.83
2016-06-27T00:59:31.541Z,70.97
2016-06-27T01:00:31.332Z,71.45
2016-06-27T01:01:31.983Z,71.45
2016-06-27T01:02:31.347Z,71.64
2016-06-27T01:03:32.007Z,71.93
2016-06-27T01:04:32.210Z,71.93
2016-06-27T01:05:32.008Z,71.73
2016-06-27T01:07:31.617Z,72.6
2016-06-27T01:08:31.422Z,72.5
2016-06-27T01:09:31.419Z,72.41
2016-06-27T01:10:46.673Z,72.02
2016-06-27T01:11:31.438Z,71.93
2016-06-27T01:12:32.099Z,72.41
2016-06-27T01:13:31.864Z,72.12
2016-06-27T01:14:32.110Z,72.6
2016-06-27T01:15:32.111Z,71.73
2016-06-27T01:16:32.123Z,72.31
2016-06-27T01:17:32.132Z,72.31
2016-06-27T01:18:32.148Z,72.69
2016-06-27T01:19:32.558Z,72.69
2016-06-27T01:20:32.969Z,72.22
2016-06-27T01:21:32.128Z,72.41
2016-06-27T01:23:31.535Z,72.02
2016-06-27T01:24:31.860Z,72.12
2016-06-27T01:25:46.802Z,72.12
2016-06-27T01:26:32.424Z,71.98
2016-06-27T01:27:32.216Z,72.47
2016-06-27T01:28:33.131Z,72.56
2016-06-27T01:29:31.803Z,72.66
2016-06-27T01:30:32.686Z,72.37
2016-06-27T01:31:32.257Z,72.37
2016-06-27T01:32:32.461Z,72.47
2016-06-27T01:34:31.649Z,72.37
2016-06-27T01:35:31.656Z,72.47
2016-06-27T01:36:31.665Z,72.56
2016-06-27T01:37:31.690Z,72.37
2016-06-27T01:38:31.889Z,72.18
2016-06-27T01:39:31.693Z,72.37
2016-06-27T01:40:32.352Z,72.66
2016-06-27T01:41:32.361Z,72.47
2016-06-27T01:42:31.711Z,72.47
2016-06-27T01:43:32.145Z,72.47
2016-06-27T01:44:31.733Z,72.47
2016-06-27T01:45:31.951Z,73.24
2016-06-27T01:46:31.962Z,72.75
2016-06-27T01:47:31.966Z,72.47
2016-06-27T01:48:31.979Z,72.47
2016-06-27T01:49:31.982Z,72.95
2016-06-27T01:50:32.225Z,72.75
2016-06-27T01:51:31.996Z,72.08
2016-06-27T01:52:32.443Z,72.85
2016-06-27T01:53:32.469Z,72.08
2016-06-27T01:54:46.859Z,72.28
2016-06-27T01:55:46.666Z,72.18
2016-06-27T01:56:46.879Z,73.33
2016-06-27T01:57:32.060Z,73.04
2016-06-27T01:58:34.092Z,73.24
2016-06-27T01:59:32.503Z,73.43
2016-06-27T02:00:32.919Z,72.95
2016-06-27T02:01:32.524Z,73.14
2016-06-27T02:02:32.553Z,73.33
2016-06-27T02:03:32.521Z,72.85
2016-06-27T02:04:32.733Z,73.14
2016-06-27T02:05:32.545Z,72.85
2016-06-27T02:06:32.588Z,72.95
2016-06-27T02:07:31.951Z,72.75
2016-06-27T02:08:32.801Z,73.14
2016-06-27T02:09:32.994Z,72.66
2016-06-27T02:10:31.981Z,72.85
2016-06-27T02:11:31.962Z,72.56
2016-06-27T02:12:32.198Z,72.95
2016-06-27T02:13:32.182Z,73.14
2016-06-27T02:14:32.215Z,73.24
2016-06-27T02:15:32.421Z,73.33
2016-06-27T02:16:32.010Z,72.56
2016-06-27T02:17:32.221Z,72.56
2016-06-27T02:18:32.678Z,72.75
2016-06-27T02:19:32.247Z,72.47
2016-06-27T02:20:32.253Z,72.56
2016-06-27T02:21:32.455Z,72.66
2016-06-27T02:23:32.101Z,72.37
2016-06-27T02:24:32.102Z,72.37
2016-06-27T02:26:32.513Z,72.37
2016-06-27T02:28:32.126Z,72.37
2016-06-27T02:29:32.326Z,72.37
2016-06-27T02:31:32.999Z,72.08
2016-06-27T02:32:32.152Z,72.18
2016-06-27T02:33:32.368Z,72.18
2016-06-27T02:34:32.187Z,71.98
2016-06-27T02:35:33.025Z,71.8
2016-06-27T02:36:32.194Z,71.31
2016-06-27T02:37:32.197Z,71.8
2016-06-27T02:38:32.834Z,71.7
2016-06-27T02:39:32.849Z,71.7
2016-06-27T02:40:32.854Z,71.61
2016-06-27T02:41:47.471Z,71.22
2016-06-27T02:42:32.532Z,71.51
2016-06-27T02:43:47.515Z,71.61
2016-06-27T02:44:33.093Z,71.22
2016-06-27T02:45:32.934Z,70.93
2016-06-27T02:46:33.152Z,71.03
2016-06-27T02:47:33.116Z,71.12
2016-06-27T02:48:33.324Z,71.03
2016-06-27T02:49:33.163Z,71.03
2016-06-27T02:50:32.360Z,71.03
2016-06-27T02:51:47.574Z,71.12
2016-06-27T02:52:47.367Z,71.61
2016-06-27T02:53:32.627Z,71.7
2016-06-27T02:54:32.989Z,71.61
2016-06-27T02:55:33.009Z,71.61
2016-06-27T02:56:33.212Z,71.51
2016-06-27T02:57:33.227Z,71.41
2016-06-27T02:58:32.398Z,71.12
2016-06-27T02:59:33.865Z,71.7
2016-06-27T03:00:33.453Z,71.89
2016-06-27T03:02:32.633Z,72.18
2016-06-27T03:05:47.693Z,71.98
2016-06-27T03:06:32.455Z,72.47
2016-06-27T03:07:32.667Z,72.28
2016-06-27T03:08:33.131Z,72.47
2016-06-27T03:09:33.338Z,72.85
2016-06-27T03:12:33.567Z,72.18
2016-06-27T03:13:33.155Z,72.37
2016-06-27T03:14:33.164Z,72.85
2016-06-27T03:15:33.169Z,72.47
2016-06-27T03:16:33.177Z,72.85
2016-06-27T03:17:33.176Z,72.28
2016-06-27T03:18:32.585Z,72.37
2016-06-27T03:19:32.793Z,72.56
2016-06-27T03:20:32.594Z,72.37
2016-06-27T03:21:33.093Z,72.47
2016-06-27T03:22:33.266Z,71.8
2016-06-27T03:23:33.262Z,71.41
2016-06-27T03:24:33.265Z,72.08
2016-06-27T03:25:33.305Z,72.28
2016-06-27T03:26:47.474Z,72.28
2016-06-27T03:27:47.682Z,72.08
2016-06-27T03:28:33.725Z,71.98
2016-06-27T03:29:33.509Z,71.89
2016-06-27T03:30:33.325Z,71.22
2016-06-27T03:31:33.516Z,71.31
2016-06-27T03:32:33.363Z,71.8
2016-06-27T03:33:33.754Z,71.61
2016-06-27T03:35:32.923Z,71.8
2016-06-27T03:36:32.719Z,71.7
2016-06-27T03:38:47.783Z,71.51
2016-06-27T03:39:47.984Z,71.41
2016-06-27T03:40:47.603Z,71.31
2016-06-27T03:41:48.406Z,71.61
2016-06-27T03:42:33.404Z,71.7
2016-06-27T03:43:33.639Z,71.61
2016-06-27T03:44:34.046Z,71.7
2016-06-27T03:45:33.453Z,71.8
2016-06-27T03:46:33.436Z,71.7
2016-06-27T03:47:33.627Z,71.7
2016-06-27T03:48:33.883Z,71.31
2016-06-27T03:49:33.472Z,71.7
2016-06-27T03:50:32.863Z,71.61
2016-06-27T03:51:32.865Z,71.41
2016-06-27T03:52:33.082Z,71.22
2016-06-27T03:53:32.879Z,71.61
2016-06-27T03:54:32.885Z,71.51
2016-06-27T03:55:32.887Z,71.51
2016-06-27T03:56:32.900Z,71.61
2016-06-27T03:57:33.560Z,71.61
2016-06-27T03:58:33.555Z,71.7
2016-06-27T04:00:33.785Z,71.12
2016-06-27T04:01:33.975Z,71.12
2016-06-27T04:03:33.827Z,71.41
2016-06-27T04:05:33.810Z,71.12
2016-06-27T04:06:33.848Z,70.74
2016-06-27T04:08:33.434Z,70.93
2016-06-27T04:09:33.030Z,70.93
2016-06-27T04:10:33.468Z,70.36
2016-06-27T04:11:47.889Z,70.64
2016-06-27T04:12:48.102Z,70.64
2016-06-27T04:13:33.898Z,70.45
2016-06-27T04:14:48.114Z,70.26
2016-06-27T04:15:33.922Z,69.87
2016-06-27T04:16:34.124Z,70.36
2016-06-27T04:17:34.137Z,70.26
2016-06-27T04:18:33.737Z,69.87
2016-06-27T04:19:33.133Z,70.17
2016-06-27T04:20:33.742Z,70.36
2016-06-27T04:21:33.158Z,70.17
2016-06-27T04:22:33.757Z,69.68
2016-06-27T04:23:33.137Z,70.17
2016-06-27T04:24:33.154Z,70.07
2016-06-27T04:25:33.158Z,70.17
2016-06-27T04:27:33.385Z,70.39
2016-06-27T04:28:33.597Z,69.14
2016-06-27T04:29:48.032Z,69.72
2016-06-27T04:30:48.649Z,69.91
2016-06-27T04:31:34.098Z,69.62
2016-06-27T04:32:48.069Z,69.34
2016-06-27T04:33:34.296Z,69.05
2016-06-27T04:34:34.297Z,70.01
2016-06-27T04:35:48.111Z,70.01
2016-06-27T04:36:34.491Z,69.81
2016-06-27T04:37:33.912Z,69.72
2016-06-27T04:38:33.275Z,69.53
2016-06-27T04:39:33.923Z,69.53
2016-06-27T04:41:34.366Z,69.91
2016-06-27T04:42:33.817Z,69.81
2016-06-27T04:43:33.614Z,69.62
2016-06-27T04:45:34.202Z,69.14
2016-06-27T04:46:33.772Z,69.24
2016-06-27T04:47:34.482Z,69.43
2016-06-27T04:48:34.208Z,69.14
2016-06-27T04:51:34.388Z,69.43
2016-06-27T04:52:34.276Z,69.14
2016-06-27T04:53:34.261Z,69.46
2016-06-27T04:54:34.295Z,69.75
2016-06-27T04:55:34.319Z,68.98
2016-06-27T04:56:33.657Z,69.08
2016-06-27T04:57:33.660Z,69.56
2016-06-27T04:58:33.873Z,69.08
2016-06-27T04:59:33.675Z,68.7
2016-06-27T05:00:34.096Z,68.41
2016-06-27T05:01:34.141Z,68.7
2016-06-27T05:03:34.366Z,68.79
2016-06-27T05:04:33.934Z,68.89
2016-06-27T05:05:48.572Z,68.98
2016-06-27T05:06:34.601Z,69.08
2016-06-27T05:07:34.389Z,68.98
2016-06-27T05:08:34.189Z,68.51
2016-06-27T05:09:34.199Z,68.12
2016-06-27T05:11:34.433Z,68.6
2016-06-27T05:12:34.244Z,68.31
2016-06-27T05:13:34.243Z,68.41
2016-06-27T05:14:33.628Z,68.51
2016-06-27T05:15:33.634Z,68.31
2016-06-27T05:16:33.652Z,68.6
2016-06-27T05:17:33.862Z,68.41
2016-06-27T05:18:34.063Z,68.7
2016-06-27T05:19:34.288Z,68.51
2016-06-27T05:20:34.134Z,68.51
2016-06-27T05:21:34.103Z,68.51
2016-06-27T05:22:34.002Z,68.7
2016-06-27T05:23:33.913Z,68.51
2016-06-27T05:24:34.567Z,68.12
2016-06-27T05:25:48.980Z,67.64
2016-06-27T05:26:34.371Z,67.35
2016-06-27T05:27:34.597Z,67.54
2016-06-27T05:28:34.394Z,67.54
2016-06-27T05:29:39.601Z,66.97
2016-06-27T05:30:33.799Z,66.97
2016-06-27T05:31:33.796Z,66.97
2016-06-27T05:32:35.061Z,67.45
2016-06-27T05:33:33.810Z,67.16
2016-06-27T05:34:34.047Z,66.77
2016-06-27T05:36:33.841Z,66.68
2016-06-27T05:37:34.685Z,67.16
2016-06-27T05:38:34.522Z,66.68
2016-06-27T05:39:34.306Z,66.97
2016-06-27T05:40:49.127Z,66.97
2016-06-27T05:41:34.979Z,67.07
2016-06-27T05:42:34.227Z,66.87
2016-06-27T05:43:33.970Z,66.91
2016-06-27T05:44:34.598Z,67.48
2016-06-27T05:45:35.027Z,67
2016-06-27T05:46:34.732Z,67
2016-06-27T05:47:33.978Z,66.52
2016-06-27T05:48:34.442Z,65.75
2016-06-27T05:49:34.085Z,65.75
2016-06-27T05:50:34.639Z,65.94
2016-06-27T05:51:34.661Z,65.84
2016-06-27T05:52:49.045Z,65.46
2016-06-27T05:54:35.053Z,65.75
2016-06-27T05:55:34.686Z,65.94
2016-06-27T05:56:34.242Z,66.04
2016-06-27T05:57:34.692Z,66.33
2016-06-27T05:59:34.271Z,66.23
2016-06-27T06:01:49.148Z,66.14
2016-06-27T06:02:34.746Z,65.56
2016-06-27T06:03:34.958Z,65.46
2016-06-27T06:04:35.144Z,65.08
2016-06-27T06:06:34.785Z,65.37
2016-06-27T06:07:34.780Z,65.17
2016-06-27T06:08:35.203Z,65.46
2016-06-27T06:09:34.379Z,65.46
2016-06-27T06:10:34.196Z,66.23
2016-06-27T06:11:34.394Z,65.46
2016-06-27T06:12:34.614Z,65.75
2016-06-27T06:13:35.054Z,65.08
2016-06-27T06:14:34.885Z,64.98
2016-06-27T06:15:34.871Z,64.79
2016-06-27T06:16:35.090Z,65.37
2016-06-27T06:17:34.871Z,64.98
2016-06-27T06:19:34.687Z,65.08
2016-06-27T06:20:34.937Z,64.79
2016-06-27T06:21:34.590Z,65.08
2016-06-27T06:23:35.170Z,65.17
2016-06-27T06:24:35.564Z,64.98
2016-06-27T06:25:34.980Z,65.17
2016-06-27T06:26:49.607Z,65.27
2016-06-27T06:27:35.638Z,65.08
2016-06-27T06:28:35.424Z,64.5
2016-06-27T06:29:35.246Z,64.89
2016-06-27T06:31:35.634Z,64.98
2016-06-27T06:33:34.668Z,64.12
2016-06-27T06:34:34.452Z,65.17
2016-06-27T06:35:34.452Z,64.31
2016-06-27T06:38:34.777Z,64.5
2016-06-27T06:39:35.131Z,64.69
2016-06-27T06:40:35.332Z,64.4
2016-06-27T06:41:35.153Z,64.4
2016-06-27T06:42:50.172Z,64.12
2016-06-27T06:43:35.359Z,64.5
2016-06-27T06:44:35.162Z,64.34
2016-06-27T06:45:35.588Z,64.53
2016-06-27T06:46:35.640Z,64.25
2016-06-27T06:47:49.412Z,64.53
2016-06-27T06:48:50.027Z,64.34
2016-06-27T06:49:35.411Z,63.76
2016-06-27T06:50:35.625Z,64.15
2016-06-27T06:51:49.641Z,63.86
2016-06-27T06:52:35.476Z,63.38
2016-06-27T06:53:35.475Z,63.57
2016-06-27T06:54:49.674Z,63.38
2016-06-27T06:55:50.089Z,63.48
2016-06-27T06:56:35.515Z,63.67
2016-06-27T06:57:35.338Z,62.8
2016-06-27T06:58:35.323Z,63.57
2016-06-27T06:59:35.342Z,62.99
2016-06-27T07:01:34.949Z,63.67
2016-06-27T07:02:34.730Z,62.8
2016-06-27T07:03:34.744Z,63.09
2016-06-27T07:04:34.747Z,63.28
2016-06-27T07:06:34.982Z,62.71
2016-06-27T07:07:34.986Z,63.09
2016-06-27T07:08:35.010Z,63.28
2016-06-27T07:09:35.001Z,62.99
2016-06-27T07:10:35.667Z,62.9
2016-06-27T07:11:50.463Z,62.99
2016-06-27T07:12:35.870Z,62.71
2016-06-27T07:13:35.465Z,62.71
2016-06-27T07:14:35.518Z,62.8
2016-06-27T07:15:49.723Z,62.51
2016-06-27T07:17:36.121Z,62.99
2016-06-27T07:18:35.731Z,62.8
2016-06-27T07:19:34.896Z,62.8
2016-06-27T07:20:34.922Z,62.41
2016-06-27T07:21:34.947Z,62.51
2016-06-27T07:22:34.946Z,62.41
2016-06-27T07:23:35.152Z,62.23
2016-06-27T07:25:36.420Z,62.26
2016-06-27T07:26:50.225Z,62.54
2016-06-27T07:27:35.210Z,62.26
2016-06-27T07:28:36.047Z,61.97
2016-06-27T07:29:35.659Z,61.77
2016-06-27T07:30:35.665Z,60.62
2016-06-27T07:31:35.030Z,61.87
2016-06-27T07:32:35.047Z,61.68
2016-06-27T07:33:35.254Z,62.16
2016-06-27T07:34:35.269Z,62.45
2016-06-27T07:35:35.480Z,62.35
2016-06-27T07:36:35.092Z,61.39
2016-06-27T07:37:35.797Z,62.48
2016-06-27T07:38:35.746Z,62.09
2016-06-27T07:39:35.753Z,61.9
2016-06-27T07:40:49.962Z,60.84
2016-06-27T07:41:35.774Z,60.17
2016-06-27T07:42:36.426Z,60.55
2016-06-27T07:43:35.813Z,59.69
2016-06-27T07:44:36.001Z,60.55
2016-06-27T07:45:35.858Z,59.2
2016-06-27T07:46:36.237Z,60.07
2016-06-27T07:47:35.424Z,59.88
2016-06-27T07:48:35.239Z,59.69
2016-06-27T07:49:35.242Z,59.56
2016-06-27T07:50:35.659Z,59.56
2016-06-27T07:51:35.253Z,59.27
2016-06-27T07:52:35.265Z,60.65
2016-06-27T07:53:36.138Z,59.94
2016-06-27T07:54:35.726Z,60.55
2016-06-27T07:55:35.931Z,60.55
2016-06-27T07:56:35.954Z,60.07
2016-06-27T07:57:35.343Z,59.59
2016-06-27T07:58:50.377Z,60.07
2016-06-27T08:00:36.187Z,60.17
2016-06-27T08:01:36.188Z,59.59
2016-06-27T08:02:36.202Z,59.69
2016-06-27T08:03:36.231Z,60.07
2016-06-27T08:04:36.446Z,59.69
2016-06-27T08:05:35.423Z,59.97
2016-06-27T08:06:35.437Z,60
2016-06-27T08:07:35.639Z,60
2016-06-27T08:08:35.661Z,58.95
2016-06-27T08:09:36.304Z,58.75
2016-06-27T08:10:35.487Z,58.65
2016-06-27T08:11:35.495Z,58.47
2016-06-27T08:12:35.485Z,57.4
2016-06-27T08:14:36.135Z,57.12
2016-06-27T08:15:35.738Z,57.69
2016-06-27T08:16:36.392Z,58.56
2016-06-27T08:17:36.615Z,58.11
2016-06-27T08:18:35.799Z,57.82
2016-06-27T08:19:36.834Z,55.99
2016-06-27T08:20:36.222Z,56.66
2016-06-27T08:21:36.220Z,56.57
2016-06-27T08:22:36.445Z,54.93
2016-06-27T08:23:36.478Z,54.54
2016-06-27T08:24:36.684Z,54.25
2016-06-27T08:25:36.057Z,54.76
2016-06-27T08:26:36.077Z,54.96
2016-06-27T08:27:35.692Z,53.7
2016-06-27T08:28:36.316Z,55.73
2016-06-27T08:29:35.764Z,54.28
2016-06-27T08:30:36.383Z,53.13
2016-06-27T08:32:36.795Z,52.76
2016-06-27T08:33:35.951Z,53.83
2016-06-27T08:34:35.759Z,51.41
2016-06-27T08:35:36.658Z,51.41
2016-06-27T08:36:36.432Z,52.95
2016-06-27T08:37:51.040Z,52.37
2016-06-27T08:38:36.500Z,52.79
2016-06-27T08:39:50.867Z,53.15
2016-06-27T08:40:36.667Z,51.73
2016-06-27T08:41:36.717Z,51.34
2016-06-27T08:43:35.890Z,51.92
2016-06-27T08:44:36.539Z,52.31
2016-06-27T08:46:35.945Z,50.86
2016-06-27T08:47:37.163Z,51.15
2016-06-27T08:48:51.170Z,51.15
2016-06-27T08:50:51.061Z,51.75
2016-06-27T08:51:51.682Z,51.56
2016-06-27T08:52:36.696Z,51.07
2016-06-27T08:53:51.011Z,51.44
2016-06-27T08:54:37.275Z,50.59
2016-06-27T08:55:37.021Z,51.07
2016-06-27T08:56:51.080Z,50.47
2016-06-27T08:57:51.094Z,51.34
2016-06-27T08:58:36.729Z,51.34
2016-06-27T08:59:36.698Z,49.99
2016-06-27T09:01:36.755Z,49.92
2016-06-27T09:03:36.331Z,51.15
2016-06-27T09:04:36.367Z,49.7
2016-06-27T09:05:36.382Z,49.7
2016-06-27T09:06:36.810Z,50.47
2016-06-27T09:07:36.825Z,51.05
2016-06-27T09:08:36.836Z,52.01
2016-06-27T09:09:36.846Z,51.15
2016-06-27T09:10:37.043Z,51.73
2016-06-27T09:11:36.889Z,51.92
2016-06-27T09:12:36.897Z,50.76
2016-06-27T09:14:36.927Z,50.57
2016-06-27T09:16:37.558Z,49.8
2016-06-27T09:18:36.339Z,50.11
2016-06-27T09:19:36.805Z,50.01
2016-06-27T09:20:36.654Z,49.34
2016-06-27T09:21:37.221Z,48.95
2016-06-27T09:22:36.412Z,49.44
2016-06-27T09:24:51.454Z,50.59
2016-06-27T09:26:37.075Z,51.07
2016-06-27T09:27:37.078Z,49.92
2016-06-27T09:28:51.531Z,49.53
2016-06-27T09:29:37.135Z,50.11
2016-06-27T09:30:37.340Z,49.34
2016-06-27T09:31:37.142Z,49.73
2016-06-27T09:33:37.191Z,48.86
2016-06-27T09:35:37.608Z,49.24
2016-06-27T09:36:37.432Z,50.5
2016-06-27T09:37:36.798Z,49.85
2016-06-27T09:38:36.807Z,49.73
2016-06-27T09:39:37.418Z,49.37
2016-06-27T09:40:37.472Z,50.04
2016-06-27T09:41:37.278Z,49.55
2016-06-27T09:42:37.500Z,50.04
2016-06-27T09:43:36.670Z,48.3
2016-06-27T09:44:51.725Z,48.3
2016-06-27T09:45:37.518Z,47.53
2016-06-27T09:46:36.729Z,47.81
2016-06-27T09:47:36.928Z,47.84
2016-06-27T09:48:36.734Z,49.19
2016-06-27T09:49:36.760Z,48.23
2016-06-27T09:50:37.809Z,48.32
2016-06-27T09:51:36.997Z,47.65
2016-06-27T09:52:37.208Z,48.32
2016-06-27T09:53:36.807Z,47.86
2016-06-27T09:54:36.830Z,48.25
2016-06-27T09:55:37.886Z,47.77
2016-06-27T09:56:51.885Z,48.06
2016-06-27T09:57:36.861Z,47.09
2016-06-27T09:58:52.127Z,46.61
2016-06-27T09:59:37.558Z,46.7
2016-06-27T10:00:37.535Z,46.53
2016-06-27T10:01:36.938Z,46.34
2016-06-27T10:02:37.139Z,45.76
2016-06-27T10:03:37.580Z,46.34
2016-06-27T10:04:52.012Z,46.73
2016-06-27T10:05:37.833Z,45.86
2016-06-27T10:08:38.288Z,45.68
2016-06-27T10:09:37.682Z,46.63
2016-06-27T10:10:37.275Z,44.91
2016-06-27T10:11:37.720Z,44.53
2016-06-27T10:12:37.719Z,45.78
2016-06-27T10:13:37.725Z,45.68
2016-06-27T10:14:37.939Z,45.88
2016-06-27T10:15:37.972Z,45.1
2016-06-27T10:16:37.331Z,44.53
2016-06-27T10:17:37.815Z,43.75
2016-06-27T10:18:37.190Z,44.62
2016-06-27T10:19:38.030Z,45.88
2016-06-27T10:20:37.832Z,45.59
2016-06-27T10:22:38.072Z,45.4
2016-06-27T10:23:37.653Z,43.95
2016-06-27T10:24:37.271Z,44.91
2016-06-27T10:25:38.523Z,44.81
2016-06-27T10:27:38.134Z,44.91
2016-06-27T10:28:37.314Z,43.55
2016-06-27T10:29:37.624Z,43.95
2016-06-27T10:30:37.539Z,41.62
2016-06-27T10:31:37.990Z,42.3
2016-06-27T10:32:38.417Z,43.09
2016-06-27T10:33:38.018Z,43.38
2016-06-27T10:34:38.046Z,41.64
2016-06-27T10:35:37.413Z,39.32
2016-06-27T10:36:37.501Z,40.67
2016-06-27T10:37:37.447Z,41.45
2016-06-27T10:38:38.725Z,41.74
2016-06-27T10:39:38.104Z,40.67
2016-06-27T10:40:38.146Z,40.77
2016-06-27T10:42:37.518Z,41.64
2016-06-27T10:46:38.229Z,42.61
2016-06-27T10:47:37.605Z,43.48
2016-06-27T10:49:37.635Z,42.8
2016-06-27T10:50:52.677Z,44.26
2016-06-27T10:51:38.314Z,43.48
2016-06-27T10:52:38.711Z,44.06
2016-06-27T10:53:38.543Z,42.9
2016-06-27T10:54:38.754Z,41.83
2016-06-27T10:55:37.918Z,41.74
2016-06-27T10:57:38.788Z,41.16
2016-06-27T10:59:52.822Z,42.41
2016-06-27T11:00:38.839Z,41.55
2016-06-27T11:02:38.479Z,42.51
2016-06-27T11:03:53.074Z,42.32
2016-06-27T11:05:53.118Z,41.72
2016-06-27T11:06:38.097Z,41.16
2016-06-27T11:07:37.904Z,40
2016-06-27T11:08:39.152Z,39.29
2016-06-27T11:09:53.385Z,40.65
2016-06-27T11:10:38.981Z,41.72
2016-06-27T11:11:39.011Z,41.72
2016-06-27T11:13:38.627Z,42.3
2016-06-27T11:14:38.645Z,39.22
2016-06-27T11:15:38.871Z,41.33
2016-06-27T11:16:39.094Z,42.1
2016-06-27T11:17:38.686Z,41.74
2016-06-27T11:18:38.460Z,41.62
2016-06-27T11:19:53.117Z,41.93
2016-06-27T11:20:38.731Z,43.77
2016-06-27T11:21:39.321Z,42.9
2016-06-27T11:22:52.953Z,42.8
2016-06-27T11:23:38.971Z,43.09
2016-06-27T11:24:38.962Z,43.96
2016-06-27T11:25:38.160Z,40.77
2016-06-27T11:26:53.006Z,41.74
2016-06-27T11:27:38.394Z,42.9
2016-06-27T11:28:39.039Z,42.41
2016-06-27T11:29:53.263Z,41.35
2016-06-27T11:30:38.887Z,41.64
2016-06-27T11:33:38.290Z,41.56
2016-06-27T11:34:39.129Z,41.76
2016-06-27T11:35:38.947Z,42.14
2016-06-27T11:37:38.980Z,40.52
2016-06-27T11:38:39.208Z,39.45
2016-06-27T11:39:38.403Z,34.89
2016-06-27T11:40:53.446Z,36.06
2016-06-27T11:41:53.687Z,38.39
2016-06-27T11:42:38.863Z,37.15
2016-06-27T11:43:39.128Z,37.63
2016-06-27T11:44:38.516Z,37.53
2016-06-27T11:45:39.280Z,37.73
2016-06-27T11:46:38.983Z,36.19
2016-06-27T11:47:39.116Z,36.58
2016-06-27T11:49:39.383Z,36.38
2016-06-27T11:50:39.182Z,36.58
2016-06-27T11:51:38.944Z,37.45
2016-06-27T11:52:53.456Z,37.37
2016-06-27T11:53:38.815Z,37.57
2016-06-27T11:54:39.251Z,36.21
2016-06-27T11:55:38.629Z,36.6
2016-06-27T11:57:39.014Z,35.63
2016-06-27T11:58:53.593Z,36.21
2016-06-27T11:59:39.129Z,36.5
2016-06-27T12:00:39.835Z,36.3
2016-06-27T12:01:39.752Z,36.21
2016-06-27T12:02:40.258Z,35.03
2016-06-27T12:04:53.820Z,35.71
2016-06-27T12:06:39.614Z,36.29
2016-06-27T12:07:39.004Z,35.61
2016-06-27T12:09:39.484Z,36.29
2016-06-27T12:10:39.491Z,34.74
2016-06-27T12:11:39.502Z,34.74
2016-06-27T12:12:39.821Z,36.68
2016-06-27T12:13:38.900Z,34.66
2016-06-27T12:14:39.581Z,35.9
2016-06-27T12:15:38.933Z,35.82
2016-06-27T12:17:39.823Z,35.63
2016-06-27T12:18:39.614Z,35.24
2016-06-27T12:19:39.011Z,35.63
2016-06-27T12:20:39.051Z,36.02
2016-06-27T12:21:39.047Z,35.24
2016-06-27T12:23:39.703Z,37.37
2016-06-27T12:24:40.304Z,36.99
2016-06-27T12:25:39.979Z,35.72
2016-06-27T12:26:39.782Z,34.95
2016-06-27T12:27:39.335Z,34.08
2016-06-27T12:28:54.384Z,32.91
2016-06-27T12:31:40.475Z,35.72
2016-06-27T12:33:39.673Z,34.56
2016-06-27T12:35:39.663Z,34.27
2016-06-27T12:37:39.911Z,35.43
2016-06-27T12:38:40.927Z,35.63
2016-06-27T12:39:39.720Z,35.92
2016-06-27T12:40:39.975Z,35.33
2016-06-27T12:41:39.999Z,35.33
2016-06-27T12:42:40.183Z,35.63
2016-06-27T12:44:39.611Z,36.4
2016-06-27T12:45:39.405Z,35.63
2016-06-27T12:46:39.629Z,34.85
2016-06-27T12:47:40.289Z,34.66
2016-06-27T12:48:40.081Z,35.82
2016-06-27T12:49:40.127Z,34.27
2016-06-27T12:50:40.160Z,34.36
2016-06-27T12:51:40.366Z,33.01
2016-06-27T12:52:54.986Z,34.77
2016-06-27T12:53:40.600Z,33.61
2016-06-27T12:54:39.575Z,33.99
2016-06-27T12:56:40.634Z,33.31
2016-06-27T12:57:40.009Z,34.28
2016-06-27T12:59:39.634Z,33.22
2016-06-27T13:01:39.657Z,34.11
2016-06-27T13:02:40.341Z,33.04
2016-06-27T13:03:40.533Z,33.14
2016-06-27T13:04:54.753Z,31.87
2016-06-27T13:05:40.358Z,32.07
2016-06-27T13:07:40.415Z,31.29
2016-06-27T13:08:40.819Z,33.14
2016-06-27T13:09:40.455Z,33.43
2016-06-27T13:10:54.668Z,32.07
2016-06-27T13:11:40.456Z,33.43
2016-06-27T13:12:40.660Z,30.22
2016-06-27T13:13:40.891Z,31.38
2016-06-27T13:14:54.704Z,31.3
2016-06-27T13:15:41.382Z,31.7
2016-06-27T13:16:41.027Z,31.6
2016-06-27T13:17:40.590Z,31.5
2016-06-27T13:18:39.957Z,31.79
2016-06-27T13:19:40.606Z,30.43
2016-06-27T13:20:40.178Z,30.44
2016-06-27T13:21:55.033Z,30.52
2016-06-27T13:22:40.883Z,30.44
2016-06-27T13:23:40.852Z,29.96
2016-06-27T13:24:40.673Z,28.97
2016-06-27T13:25:40.711Z,30.91
2016-06-27T13:26:54.904Z,31.4
2016-06-27T13:27:40.281Z,30.83
2016-06-27T13:28:40.947Z,30.72
2016-06-27T13:29:40.120Z,29.38
2016-06-27T13:30:40.145Z,31.41
2016-06-27T13:31:40.665Z,32.29
2016-06-27T13:32:40.191Z,32.08
2016-06-27T13:34:41.273Z,31.32
2016-06-27T13:35:41.254Z,32.2
2016-06-27T13:36:41.082Z,31.71
2016-06-27T13:38:40.567Z,30.25
2016-06-27T13:39:41.163Z,30.25
2016-06-27T13:40:40.971Z,30.35
2016-06-27T13:41:40.991Z,27.82
2016-06-27T13:42:40.947Z,28.99
2016-06-27T13:43:41.002Z,31.13
2016-06-27T13:44:41.210Z,30.83
2016-06-27T13:45:41.216Z,32
2016-06-27T13:46:41.309Z,32
2016-06-27T13:47:40.424Z,31.71
2016-06-27T13:48:41.072Z,31.9
2016-06-27T13:50:41.514Z,29.18
2016-06-27T13:51:41.137Z,29.08
2016-06-27T13:52:41.177Z,30.44
2016-06-27T13:53:41.378Z,30.54
2016-06-27T13:54:55.569Z,29.96
2016-06-27T13:55:41.616Z,30.44
2016-06-27T13:57:41.014Z,29.66
2016-06-27T13:59:55.668Z,29.18
2016-06-27T14:00:41.686Z,29.08
2016-06-27T14:02:55.715Z,30.64
2016-06-27T14:03:41.342Z,30.91
2016-06-27T14:04:40.905Z,31.3
2016-06-27T14:05:41.384Z,30.24
2016-06-27T14:06:41.369Z,28.78
2016-06-27T14:08:40.775Z,30.32
2016-06-27T14:11:41.681Z,30.88
2016-06-27T14:12:41.664Z,31.47
2016-06-27T14:13:40.852Z,31.27
2016-06-27T14:14:40.875Z,31.16
2016-06-27T14:15:55.924Z,32.04
2016-06-27T14:16:41.550Z,32.32
2016-06-27T14:17:42.195Z,31.94
2016-06-27T14:18:41.970Z,32.99
2016-06-27T14:19:40.998Z,33.09
2016-06-27T14:20:41.806Z,33.26
2016-06-27T14:21:41.197Z,33.17
2016-06-27T14:22:41.205Z,34.14
2016-06-27T14:23:41.864Z,33.26
2016-06-27T14:24:41.672Z,33.46
2016-06-27T14:25:41.043Z,34.23
2016-06-27T14:26:41.051Z,33.94
2016-06-27T14:27:41.721Z,33.94
2016-06-27T14:28:41.727Z,34.43
2016-06-27T14:29:56.142Z,34.53
2016-06-27T14:34:42.434Z,34.64
2016-06-27T14:35:41.506Z,33.39
2016-06-27T14:36:41.874Z,34.27
2016-06-27T14:38:56.495Z,33.39
2016-06-27T14:39:41.906Z,33.39
2016-06-27T14:40:41.910Z,33.29
2016-06-27T14:41:56.953Z,34.27
2016-06-27T14:42:42.400Z,33.29